China Lake Naws (Armitage Field) Airport
KNID : now visible

Airfield :











YOU CAN JOIN US ON...

 
LOGIN :

Register | Disclaimer

   EN    FR    IT 

 









Legend :    VFR   Marginal VFR   IFR   Intensive IFR   Very Intensive IFR
Visi :
Ceiling :
>= 8 km
>= 3000ft
5 to 8 km
1000 to 3000 ft
1500m to 5 km
500 to 1000 ft
800 to 1500m
200 to 500 ft
< 800m
< 200 ft
Symbols :   Thunderstorms  Fog  Heavy snow  Heavy precipitations  Wind > 20 kt






- Airport Elevation : 2283 ft


KNID - China Lake Naws (Armitage Field)

CURRENT METAR :
  • 270329Z 27020G32KT 2 1/2SM HZ SCT002 17/M11 A2978 RMK AO2 PK WND 26032/0326 T01721106 PNO $

EXPIRED METARs :
  • 270315Z 26018G27KT 5SM HZ FEW002 17/M12 A2978 RMK AO2 PK WND 26031/0300 T01721117 PNO $
  • 270303Z 27019G31KT 2 1/2SM HZ FEW002 18/M12 A2977 RMK AO2 PK WND 26031/0300 VIS 1 3/4V5 T01831122 PNO $
  • 270256Z 26022G29KT 4SM HZ FEW250 18/M11 A2977 RMK AO2 PK WND 25030/0245 SLP082 6//// T01781111 58015 PNO $
  • 270156Z 22009KT 10SM FEW250 18/M10 A2979 RMK AO2 SLP092 T01781100 PNO $
  • 270056Z 20007KT 10SM CLR 22/M12 A2979 RMK AO2 SLP088 T02171117 PNO $

TAF TAF KNID
Valid from the 26 at 23:00 until the 27 at 23:00 UTC


2623/2723 VRB05KT 9999 SKC QNH2981INS
BECMG 2700/2702 25012G20KT 9999 FEW250 510005 QNH2982INS WND 220V290
BECMG 2704/2706 30008KT 9999 SKC 500000 QNH2988INS
BECMG 2712/2714 VRB04KT 9999 SKC QNH3000INS T01/2714Z T18/2723Z LAST NO AMDS AFT 2707 NEXT 0115
KZLA FIR / North America



MET'MAP, your aeronautical weather chart ! - Copyright ORBIFLY December 2007 - Disclaimer

ORBIFLY MET'MAP TEAM :

Programming & Development : Alexandra Zaïnal
Concept & original design : Baudouin d'Aumeries
Assistance for programming : Marc-Olivier Méhu
Technical & hardware support : Manuel Goepfert

Contact : metmap@orbifly.com




SOURCES & CREDITS :

   NOAA       Earth
Advisory